sensor_id;sensor_type;location;lat;lon;timestamp;P1;durP1;ratioP1;P2;durP2;ratioP2
9364;SDS011;4722;49.340;9.800;2023-07-29T00:02:10;3.17;;;0.98;;
9364;SDS011;4722;49.340;9.800;2023-07-29T00:04:36;2.45;;;0.90;;
9364;SDS011;4722;49.340;9.800;2023-07-29T00:07:02;2.13;;;0.98;;
9364;SDS011;4722;49.340;9.800;2023-07-29T00:09:28;3.95;;;1.20;;
9364;SDS011;4722;49.340;9.800;2023-07-29T00:11:54;2.45;;;0.85;;
9364;SDS011;4722;49.340;9.800;2023-07-29T00:14:20;1.45;;;0.70;;
9364;SDS011;4722;49.340;9.800;2023-07-29T00:16:46;5.22;;;0.98;;
9364;SDS011;4722;49.340;9.800;2023-07-29T00:19:12;4.13;;;1.48;;
9364;SDS011;4722;49.340;9.800;2023-07-29T00:21:38;2.80;;;1.08;;
9364;SDS011;4722;49.340;9.800;2023-07-29T00:24:06;1.50;;;0.60;;
9364;SDS011;4722;49.340;9.800;2023-07-29T00:26:32;5.03;;;1.08;;
9364;SDS011;4722;49.340;9.800;2023-07-29T00:28:58;2.22;;;1.13;;
9364;SDS011;4722;49.340;9.800;2023-07-29T00:31:24;2.53;;;1.00;;
9364;SDS011;4722;49.340;9.800;2023-07-29T00:33:50;2.17;;;0.85;;
9364;SDS011;4722;49.340;9.800;2023-07-29T00:36:17;1.48;;;0.77;;
9364;SDS011;4722;49.340;9.800;2023-07-29T00:38:44;2.08;;;1.02;;
9364;SDS011;4722;49.340;9.800;2023-07-29T00:41:10;1.88;;;0.88;;
9364;SDS011;4722;49.340;9.800;2023-07-29T00:43:38;2.58;;;1.23;;
9364;SDS011;4722;49.340;9.800;2023-07-29T00:46:04;1.83;;;1.00;;
9364;SDS011;4722;49.340;9.800;2023-07-29T00:48:30;5.93;;;1.10;;
9364;SDS011;4722;49.340;9.800;2023-07-29T00:50:56;2.97;;;1.05;;
9364;SDS011;4722;49.340;9.800;2023-07-29T00:53:22;1.23;;;0.73;;
9364;SDS011;4722;49.340;9.800;2023-07-29T00:55:48;2.00;;;1.02;;
9364;SDS011;4722;49.340;9.800;2023-07-29T00:58:14;1.85;;;0.93;;
9364;SDS011;4722;49.340;9.800;2023-07-29T01:04:02;4.03;;;1.38;;
9364;SDS011;4722;49.340;9.800;2023-07-29T01:09:04;2.15;;;1.02;;
9364;SDS011;4722;49.340;9.800;2023-07-29T01:11:45;2.13;;;0.88;;
9364;SDS011;4722;49.340;9.800;2023-07-29T01:14:30;1.60;;;0.85;;
9364;SDS011;4722;49.340;9.800;2023-07-29T01:17:03;2.15;;;0.93;;
9364;SDS011;4722;49.340;9.800;2023-07-29T01:19:38;2.45;;;1.35;;
9364;SDS011;4722;49.340;9.800;2023-07-29T01:22:31;1.85;;;0.90;;
9364;SDS011;4722;49.340;9.800;2023-07-29T01:24:58;2.22;;;1.23;;
9364;SDS011;4722;49.340;9.800;2023-07-29T01:27:24;2.38;;;1.17;;
9364;SDS011;4722;49.340;9.800;2023-07-29T01:29:51;3.05;;;1.02;;
9364;SDS011;4722;49.340;9.800;2023-07-29T01:32:19;2.55;;;1.30;;
9364;SDS011;4722;49.340;9.800;2023-07-29T01:35:19;4.72;;;1.73;;
9364;SDS011;4722;49.340;9.800;2023-07-29T01:37:59;2.22;;;0.82;;
9364;SDS011;4722;49.340;9.800;2023-07-29T01:40:30;3.15;;;1.60;;
9364;SDS011;4722;49.340;9.800;2023-07-29T01:42:56;3.22;;;1.48;;
9364;SDS011;4722;49.340;9.800;2023-07-29T01:45:23;2.60;;;1.40;;
9364;SDS011;4722;49.340;9.800;2023-07-29T01:47:50;2.78;;;1.45;;
9364;SDS011;4722;49.340;9.800;2023-07-29T01:50:16;3.72;;;1.63;;
9364;SDS011;4722;49.340;9.800;2023-07-29T01:52:42;3.78;;;1.33;;
9364;SDS011;4722;49.340;9.800;2023-07-29T01:55:08;2.38;;;1.33;;
9364;SDS011;4722;49.340;9.800;2023-07-29T01:57:34;5.15;;;0.88;;
9364;SDS011;4722;49.340;9.800;2023-07-29T02:00:00;3.85;;;1.48;;
9364;SDS011;4722;49.340;9.800;2023-07-29T02:02:26;2.78;;;1.30;;
9364;SDS011;4722;49.340;9.800;2023-07-29T02:04:52;2.78;;;1.05;;
9364;SDS011;4722;49.340;9.800;2023-07-29T02:10:42;1.98;;;0.98;;
9364;SDS011;4722;49.340;9.800;2023-07-29T02:13:10;1.63;;;1.02;;
9364;SDS011;4722;49.340;9.800;2023-07-29T02:15:36;3.42;;;1.48;;
9364;SDS011;4722;49.340;9.800;2023-07-29T02:18:02;3.63;;;1.63;;
9364;SDS011;4722;49.340;9.800;2023-07-29T02:20:28;7.10;;;1.70;;
9364;SDS011;4722;49.340;9.800;2023-07-29T02:22:54;3.55;;;1.73;;
9364;SDS011;4722;49.340;9.800;2023-07-29T02:25:20;2.55;;;1.25;;
9364;SDS011;4722;49.340;9.800;2023-07-29T02:27:46;3.53;;;1.88;;
9364;SDS011;4722;49.340;9.800;2023-07-29T02:30:12;3.58;;;1.45;;
9364;SDS011;4722;49.340;9.800;2023-07-29T02:32:38;2.67;;;1.17;;
9364;SDS011;4722;49.340;9.800;2023-07-29T02:35:04;3.65;;;1.73;;
9364;SDS011;4722;49.340;9.800;2023-07-29T02:37:30;3.35;;;1.75;;
9364;SDS011;4722;49.340;9.800;2023-07-29T02:39:56;4.57;;;1.85;;
9364;SDS011;4722;49.340;9.800;2023-07-29T02:42:22;6.25;;;2.22;;
9364;SDS011;4722;49.340;9.800;2023-07-29T02:44:48;2.78;;;1.27;;
9364;SDS011;4722;49.340;9.800;2023-07-29T02:47:14;4.65;;;1.85;;
9364;SDS011;4722;49.340;9.800;2023-07-29T02:49:40;7.60;;;2.22;;
9364;SDS011;4722;49.340;9.800;2023-07-29T02:52:06;10.60;;;2.13;;
9364;SDS011;4722;49.340;9.800;2023-07-29T02:54:32;3.58;;;1.90;;
9364;SDS011;4722;49.340;9.800;2023-07-29T02:56:58;5.15;;;1.48;;
9364;SDS011;4722;49.340;9.800;2023-07-29T02:59:24;3.40;;;1.38;;
9364;SDS011;4722;49.340;9.800;2023-07-29T03:01:49;6.70;;;1.98;;
9364;SDS011;4722;49.340;9.800;2023-07-29T03:04:15;2.28;;;1.05;;
9364;SDS011;4722;49.340;9.800;2023-07-29T03:06:41;2.05;;;1.23;;
9364;SDS011;4722;49.340;9.800;2023-07-29T03:09:07;3.95;;;1.88;;
9364;SDS011;4722;49.340;9.800;2023-07-29T03:11:33;3.42;;;1.13;;
9364;SDS011;4722;49.340;9.800;2023-07-29T03:13:59;2.58;;;1.10;;
9364;SDS011;4722;49.340;9.800;2023-07-29T03:16:25;3.58;;;1.55;;
9364;SDS011;4722;49.340;9.800;2023-07-29T03:18:51;2.22;;;1.17;;
9364;SDS011;4722;49.340;9.800;2023-07-29T03:21:17;1.67;;;1.00;;
9364;SDS011;4722;49.340;9.800;2023-07-29T03:23:43;2.03;;;1.02;;
9364;SDS011;4722;49.340;9.800;2023-07-29T03:26:09;2.40;;;1.10;;
9364;SDS011;4722;49.340;9.800;2023-07-29T03:28:36;9.23;;;1.70;;
9364;SDS011;4722;49.340;9.800;2023-07-29T03:31:04;3.63;;;1.95;;
9364;SDS011;4722;49.340;9.800;2023-07-29T03:33:30;4.47;;;2.55;;
9364;SDS011;4722;49.340;9.800;2023-07-29T03:35:56;2.45;;;1.15;;
9364;SDS011;4722;49.340;9.800;2023-07-29T03:38:22;3.70;;;1.38;;
9364;SDS011;4722;49.340;9.800;2023-07-29T03:40:48;2.15;;;1.13;;
9364;SDS011;4722;49.340;9.800;2023-07-29T03:43:14;5.57;;;1.48;;
9364;SDS011;4722;49.340;9.800;2023-07-29T03:45:40;2.55;;;1.02;;
9364;SDS011;4722;49.340;9.800;2023-07-29T03:48:06;2.20;;;1.15;;
9364;SDS011;4722;49.340;9.800;2023-07-29T03:50:33;1.80;;;0.85;;
9364;SDS011;4722;49.340;9.800;2023-07-29T03:53:00;3.65;;;1.25;;
9364;SDS011;4722;49.340;9.800;2023-07-29T03:55:26;1.73;;;1.05;;
9364;SDS011;4722;49.340;9.800;2023-07-29T03:57:52;2.97;;;0.93;;
9364;SDS011;4722;49.340;9.800;2023-07-29T04:00:18;3.03;;;1.27;;
9364;SDS011;4722;49.340;9.800;2023-07-29T04:02:44;5.05;;;1.23;;
9364;SDS011;4722;49.340;9.800;2023-07-29T04:05:10;2.00;;;1.23;;
9364;SDS011;4722;49.340;9.800;2023-07-29T04:07:36;2.15;;;1.02;;
9364;SDS011;4722;49.340;9.800;2023-07-29T04:10:03;1.83;;;1.17;;
9364;SDS011;4722;49.340;9.800;2023-07-29T04:12:29;2.20;;;1.17;;
9364;SDS011;4722;49.340;9.800;2023-07-29T04:14:55;3.47;;;1.20;;
9364;SDS011;4722;49.340;9.800;2023-07-29T04:17:21;1.98;;;1.20;;
9364;SDS011;4722;49.340;9.800;2023-07-29T04:19:47;4.22;;;1.35;;
9364;SDS011;4722;49.340;9.800;2023-07-29T04:22:14;4.63;;;1.13;;
9364;SDS011;4722;49.340;9.800;2023-07-29T04:24:40;3.28;;;1.38;;
9364;SDS011;4722;49.340;9.800;2023-07-29T04:27:06;2.47;;;1.42;;
9364;SDS011;4722;49.340;9.800;2023-07-29T04:29:32;3.25;;;1.40;;
9364;SDS011;4722;49.340;9.800;2023-07-29T04:32:00;2.22;;;1.02;;
9364;SDS011;4722;49.340;9.800;2023-07-29T04:34:26;2.85;;;1.27;;
9364;SDS011;4722;49.340;9.800;2023-07-29T04:36:52;1.75;;;0.95;;
9364;SDS011;4722;49.340;9.800;2023-07-29T04:39:18;2.47;;;1.20;;
9364;SDS011;4722;49.340;9.800;2023-07-29T04:41:44;1.23;;;0.80;;
9364;SDS011;4722;49.340;9.800;2023-07-29T04:44:10;1.65;;;0.70;;
9364;SDS011;4722;49.340;9.800;2023-07-29T04:46:36;2.63;;;0.77;;
9364;SDS011;4722;49.340;9.800;2023-07-29T04:49:03;1.58;;;0.60;;
9364;SDS011;4722;49.340;9.800;2023-07-29T04:51:29;1.75;;;0.77;;
9364;SDS011;4722;49.340;9.800;2023-07-29T04:53:56;2.22;;;0.80;;
9364;SDS011;4722;49.340;9.800;2023-07-29T04:56:22;2.28;;;0.93;;
9364;SDS011;4722;49.340;9.800;2023-07-29T04:58:48;1.77;;;0.85;;
9364;SDS011;4722;49.340;9.800;2023-07-29T05:01:14;1.75;;;1.00;;
9364;SDS011;4722;49.340;9.800;2023-07-29T05:03:40;1.50;;;0.70;;
9364;SDS011;4722;49.340;9.800;2023-07-29T05:06:06;1.30;;;0.70;;
9364;SDS011;4722;49.340;9.800;2023-07-29T05:08:32;1.42;;;0.70;;
9364;SDS011;4722;49.340;9.800;2023-07-29T05:10:58;1.20;;;0.57;;
9364;SDS011;4722;49.340;9.800;2023-07-29T05:13:24;2.15;;;0.95;;
9364;SDS011;4722;49.340;9.800;2023-07-29T05:15:50;1.30;;;0.70;;
9364;SDS011;4722;49.340;9.800;2023-07-29T05:18:17;2.03;;;0.70;;
9364;SDS011;4722;49.340;9.800;2023-07-29T05:20:42;2.25;;;0.88;;
9364;SDS011;4722;49.340;9.800;2023-07-29T05:23:09;1.40;;;0.82;;
9364;SDS011;4722;49.340;9.800;2023-07-29T05:25:35;1.65;;;0.65;;
9364;SDS011;4722;49.340;9.800;2023-07-29T05:28:01;1.33;;;0.70;;
9364;SDS011;4722;49.340;9.800;2023-07-29T05:30:27;3.28;;;0.55;;
9364;SDS011;4722;49.340;9.800;2023-07-29T05:32:56;7.13;;;0.82;;
9364;SDS011;4722;49.340;9.800;2023-07-29T05:35:22;2.20;;;0.88;;
9364;SDS011;4722;49.340;9.800;2023-07-29T05:37:48;1.13;;;0.40;;
9364;SDS011;4722;49.340;9.800;2023-07-29T05:43:43;4.07;;;0.70;;
9364;SDS011;4722;49.340;9.800;2023-07-29T05:46:10;1.80;;;0.60;;
9364;SDS011;4722;49.340;9.800;2023-07-29T05:48:36;1.92;;;0.77;;
9364;SDS011;4722;49.340;9.800;2023-07-29T05:51:02;4.30;;;0.55;;
9364;SDS011;4722;49.340;9.800;2023-07-29T05:53:30;1.48;;;0.50;;
9364;SDS011;4722;49.340;9.800;2023-07-29T05:55:56;2.05;;;0.60;;
9364;SDS011;4722;49.340;9.800;2023-07-29T05:58:22;3.90;;;0.70;;
9364;SDS011;4722;49.340;9.800;2023-07-29T06:00:48;0.80;;;0.60;;
9364;SDS011;4722;49.340;9.800;2023-07-29T06:03:14;3.42;;;0.88;;
9364;SDS011;4722;49.340;9.800;2023-07-29T06:05:40;0.70;;;0.40;;
9364;SDS011;4722;49.340;9.800;2023-07-29T06:08:06;1.23;;;0.60;;
9364;SDS011;4722;49.340;9.800;2023-07-29T06:10:33;1.27;;;0.70;;
9364;SDS011;4722;49.340;9.800;2023-07-29T06:12:59;2.20;;;0.90;;
9364;SDS011;4722;49.340;9.800;2023-07-29T06:15:24;1.02;;;0.40;;
9364;SDS011;4722;49.340;9.800;2023-07-29T06:17:50;1.52;;;0.50;;
9364;SDS011;4722;49.340;9.800;2023-07-29T06:20:18;4.82;;;0.80;;
9364;SDS011;4722;49.340;9.800;2023-07-29T06:22:44;1.92;;;1.08;;
9364;SDS011;4722;49.340;9.800;2023-07-29T06:25:10;1.05;;;0.50;;
9364;SDS011;4722;49.340;9.800;2023-07-29T06:27:35;1.02;;;0.52;;
9364;SDS011;4722;49.340;9.800;2023-07-29T06:30:02;1.13;;;0.40;;
9364;SDS011;4722;49.340;9.800;2023-07-29T06:32:28;1.55;;;0.43;;
9364;SDS011;4722;49.340;9.800;2023-07-29T06:34:53;0.75;;;0.35;;
9364;SDS011;4722;49.340;9.800;2023-07-29T06:37:19;6.18;;;0.80;;
9364;SDS011;4722;49.340;9.800;2023-07-29T06:39:45;1.25;;;0.60;;
9364;SDS011;4722;49.340;9.800;2023-07-29T06:42:11;3.75;;;1.50;;
9364;SDS011;4722;49.340;9.800;2023-07-29T06:44:39;1.58;;;0.88;;
9364;SDS011;4722;49.340;9.800;2023-07-29T06:47:05;2.78;;;0.70;;
9364;SDS011;4722;49.340;9.800;2023-07-29T06:49:31;2.13;;;0.63;;
9364;SDS011;4722;49.340;9.800;2023-07-29T06:51:57;3.13;;;0.52;;
9364;SDS011;4722;49.340;9.800;2023-07-29T06:54:24;1.88;;;1.13;;
9364;SDS011;4722;49.340;9.800;2023-07-29T06:56:51;1.88;;;0.70;;
9364;SDS011;4722;49.340;9.800;2023-07-29T06:59:17;1.65;;;0.60;;
9364;SDS011;4722;49.340;9.800;2023-07-29T07:01:43;2.33;;;0.57;;
9364;SDS011;4722;49.340;9.800;2023-07-29T07:04:09;3.20;;;0.80;;
9364;SDS011;4722;49.340;9.800;2023-07-29T07:06:34;1.77;;;0.70;;
9364;SDS011;4722;49.340;9.800;2023-07-29T07:09:00;2.00;;;0.82;;
9364;SDS011;4722;49.340;9.800;2023-07-29T07:11:26;5.78;;;0.60;;
9364;SDS011;4722;49.340;9.800;2023-07-29T07:13:53;3.15;;;0.77;;
9364;SDS011;4722;49.340;9.800;2023-07-29T07:16:19;3.08;;;1.00;;
9364;SDS011;4722;49.340;9.800;2023-07-29T07:18:45;1.48;;;0.45;;
9364;SDS011;4722;49.340;9.800;2023-07-29T07:21:11;4.88;;;0.77;;
9364;SDS011;4722;49.340;9.800;2023-07-29T07:23:38;1.70;;;0.75;;
9364;SDS011;4722;49.340;9.800;2023-07-29T07:26:04;5.45;;;1.73;;
9364;SDS011;4722;49.340;9.800;2023-07-29T07:28:29;2.05;;;0.60;;
9364;SDS011;4722;49.340;9.800;2023-07-29T07:30:55;2.20;;;0.50;;
9364;SDS011;4722;49.340;9.800;2023-07-29T07:33:21;1.15;;;0.50;;
9364;SDS011;4722;49.340;9.800;2023-07-29T07:35:49;0.60;;;0.38;;
9364;SDS011;4722;49.340;9.800;2023-07-29T07:38:17;1.85;;;0.65;;
9364;SDS011;4722;49.340;9.800;2023-07-29T07:40:51;1.13;;;0.20;;
9364;SDS011;4722;49.340;9.800;2023-07-29T07:43:18;1.00;;;0.60;;
9364;SDS011;4722;49.340;9.800;2023-07-29T07:45:44;5.07;;;0.50;;
9364;SDS011;4722;49.340;9.800;2023-07-29T07:48:11;0.98;;;0.47;;
9364;SDS011;4722;49.340;9.800;2023-07-29T07:50:38;1.20;;;0.55;;
9364;SDS011;4722;49.340;9.800;2023-07-29T07:53:04;1.73;;;0.43;;
9364;SDS011;4722;49.340;9.800;2023-07-29T07:55:30;4.28;;;0.50;;
9364;SDS011;4722;49.340;9.800;2023-07-29T07:57:55;0.85;;;0.20;;
9364;SDS011;4722;49.340;9.800;2023-07-29T08:00:22;3.30;;;0.57;;
9364;SDS011;4722;49.340;9.800;2023-07-29T08:02:49;3.75;;;0.45;;
9364;SDS011;4722;49.340;9.800;2023-07-29T08:05:14;1.60;;;0.60;;
9364;SDS011;4722;49.340;9.800;2023-07-29T08:07:40;1.45;;;0.60;;
9364;SDS011;4722;49.340;9.800;2023-07-29T08:10:06;1.17;;;0.47;;
9364;SDS011;4722;49.340;9.800;2023-07-29T08:12:32;1.80;;;0.60;;
9364;SDS011;4722;49.340;9.800;2023-07-29T08:14:58;1.65;;;0.47;;
9364;SDS011;4722;49.340;9.800;2023-07-29T08:17:24;0.70;;;0.43;;
9364;SDS011;4722;49.340;9.800;2023-07-29T08:19:50;1.75;;;0.55;;
9364;SDS011;4722;49.340;9.800;2023-07-29T08:22:17;1.13;;;0.28;;
9364;SDS011;4722;49.340;9.800;2023-07-29T08:24:43;0.57;;;0.30;;
9364;SDS011;4722;49.340;9.800;2023-07-29T08:27:09;0.68;;;0.40;;
9364;SDS011;4722;49.340;9.800;2023-07-29T08:29:35;0.85;;;0.30;;
9364;SDS011;4722;49.340;9.800;2023-07-29T08:32:01;0.75;;;0.52;;
9364;SDS011;4722;49.340;9.800;2023-07-29T08:34:27;1.30;;;0.70;;
9364;SDS011;4722;49.340;9.800;2023-07-29T08:36:53;0.75;;;0.40;;
9364;SDS011;4722;49.340;9.800;2023-07-29T08:39:19;1.35;;;0.45;;
9364;SDS011;4722;49.340;9.800;2023-07-29T08:46:37;1.25;;;0.30;;
9364;SDS011;4722;49.340;9.800;2023-07-29T08:49:04;1.17;;;0.60;;
9364;SDS011;4722;49.340;9.800;2023-07-29T08:51:31;2.38;;;0.50;;
9364;SDS011;4722;49.340;9.800;2023-07-29T08:53:57;4.72;;;0.40;;
9364;SDS011;4722;49.340;9.800;2023-07-29T08:56:25;1.45;;;0.52;;
9364;SDS011;4722;49.340;9.800;2023-07-29T08:58:52;0.88;;;0.30;;
9364;SDS011;4722;49.340;9.800;2023-07-29T09:01:18;1.17;;;0.60;;
9364;SDS011;4722;49.340;9.800;2023-07-29T09:03:43;0.50;;;0.20;;
9364;SDS011;4722;49.340;9.800;2023-07-29T09:06:09;1.85;;;0.73;;
9364;SDS011;4722;49.340;9.800;2023-07-29T09:08:35;1.67;;;0.45;;
9364;SDS011;4722;49.340;9.800;2023-07-29T09:11:01;0.88;;;0.40;;
9364;SDS011;4722;49.340;9.800;2023-07-29T09:13:27;1.67;;;0.63;;
9364;SDS011;4722;49.340;9.800;2023-07-29T09:15:54;2.60;;;0.60;;
9364;SDS011;4722;49.340;9.800;2023-07-29T09:18:22;2.25;;;0.57;;
9364;SDS011;4722;49.340;9.800;2023-07-29T09:20:48;0.40;;;0.28;;
9364;SDS011;4722;49.340;9.800;2023-07-29T09:23:15;0.70;;;0.40;;
9364;SDS011;4722;49.340;9.800;2023-07-29T09:25:41;1.15;;;0.40;;
9364;SDS011;4722;49.340;9.800;2023-07-29T09:28:08;6.68;;;0.40;;
9364;SDS011;4722;49.340;9.800;2023-07-29T09:30:39;1.17;;;0.40;;
9364;SDS011;4722;49.340;9.800;2023-07-29T09:33:05;3.63;;;0.47;;
9364;SDS011;4722;49.340;9.800;2023-07-29T09:35:33;0.90;;;0.20;;
9364;SDS011;4722;49.340;9.800;2023-07-29T09:38:00;0.35;;;0.25;;
9364;SDS011;4722;49.340;9.800;2023-07-29T09:40:26;1.15;;;0.45;;
9364;SDS011;4722;49.340;9.800;2023-07-29T09:42:53;1.77;;;0.60;;
9364;SDS011;4722;49.340;9.800;2023-07-29T09:45:20;0.63;;;0.43;;
9364;SDS011;4722;49.340;9.800;2023-07-29T09:51:12;1.65;;;1.10;;
9364;SDS011;4722;49.340;9.800;2023-07-29T09:53:39;0.57;;;0.30;;
9364;SDS011;4722;49.340;9.800;2023-07-29T09:56:09;0.63;;;0.30;;
9364;SDS011;4722;49.340;9.800;2023-07-29T09:58:35;0.65;;;0.28;;
9364;SDS011;4722;49.340;9.800;2023-07-29T10:01:03;0.85;;;0.30;;
9364;SDS011;4722;49.340;9.800;2023-07-29T10:03:29;0.68;;;0.30;;
9364;SDS011;4722;49.340;9.800;2023-07-29T10:05:56;1.67;;;0.43;;
9364;SDS011;4722;49.340;9.800;2023-07-29T10:08:26;3.22;;;0.95;;
9364;SDS011;4722;49.340;9.800;2023-07-29T10:10:52;1.00;;;0.85;;
9364;SDS011;4722;49.340;9.800;2023-07-29T10:13:18;1.33;;;0.95;;
9364;SDS011;4722;49.340;9.800;2023-07-29T10:15:44;2.53;;;0.57;;
9364;SDS011;4722;49.340;9.800;2023-07-29T10:18:11;0.57;;;0.40;;
9364;SDS011;4722;49.340;9.800;2023-07-29T10:20:37;1.35;;;0.40;;
9364;SDS011;4722;49.340;9.800;2023-07-29T10:23:05;2.38;;;0.68;;
9364;SDS011;4722;49.340;9.800;2023-07-29T10:25:37;1.58;;;0.50;;
9364;SDS011;4722;49.340;9.800;2023-07-29T10:28:07;1.75;;;0.50;;
9364;SDS011;4722;49.340;9.800;2023-07-29T10:30:33;1.30;;;0.60;;
9364;SDS011;4722;49.340;9.800;2023-07-29T10:33:02;1.25;;;0.50;;
9364;SDS011;4722;49.340;9.800;2023-07-29T10:35:29;1.02;;;0.43;;
9364;SDS011;4722;49.340;9.800;2023-07-29T10:37:55;4.28;;;0.65;;
9364;SDS011;4722;49.340;9.800;2023-07-29T10:40:21;0.85;;;0.45;;
9364;SDS011;4722;49.340;9.800;2023-07-29T10:45:38;0.60;;;0.30;;
9364;SDS011;4722;49.340;9.800;2023-07-29T10:48:05;1.58;;;0.60;;
9364;SDS011;4722;49.340;9.800;2023-07-29T10:50:35;3.63;;;0.70;;
9364;SDS011;4722;49.340;9.800;2023-07-29T10:53:01;1.90;;;0.80;;
9364;SDS011;4722;49.340;9.800;2023-07-29T10:55:28;1.17;;;0.47;;
9364;SDS011;4722;49.340;9.800;2023-07-29T11:00:40;1.83;;;0.50;;
9364;SDS011;4722;49.340;9.800;2023-07-29T11:03:08;1.55;;;0.47;;
9364;SDS011;4722;49.340;9.800;2023-07-29T11:05:50;1.50;;;0.45;;
9364;SDS011;4722;49.340;9.800;2023-07-29T11:10:44;0.80;;;0.43;;
9364;SDS011;4722;49.340;9.800;2023-07-29T11:13:33;1.30;;;0.50;;
9364;SDS011;4722;49.340;9.800;2023-07-29T11:16:00;0.90;;;0.38;;
9364;SDS011;4722;49.340;9.800;2023-07-29T11:18:27;0.55;;;0.30;;
9364;SDS011;4722;49.340;9.800;2023-07-29T11:20:54;1.48;;;0.30;;
9364;SDS011;4722;49.340;9.800;2023-07-29T11:23:21;2.05;;;0.55;;
9364;SDS011;4722;49.340;9.800;2023-07-29T11:25:53;0.95;;;0.38;;
9364;SDS011;4722;49.340;9.800;2023-07-29T11:28:19;1.30;;;0.50;;
9364;SDS011;4722;49.340;9.800;2023-07-29T11:30:46;1.48;;;0.30;;
9364;SDS011;4722;49.340;9.800;2023-07-29T11:33:12;1.02;;;0.52;;
9364;SDS011;4722;49.340;9.800;2023-07-29T11:35:38;0.75;;;0.50;;
9364;SDS011;4722;49.340;9.800;2023-07-29T11:38:04;0.95;;;0.40;;
9364;SDS011;4722;49.340;9.800;2023-07-29T11:40:30;1.30;;;0.30;;
9364;SDS011;4722;49.340;9.800;2023-07-29T11:42:56;1.30;;;0.60;;
9364;SDS011;4722;49.340;9.800;2023-07-29T11:45:22;0.90;;;0.50;;
9364;SDS011;4722;49.340;9.800;2023-07-29T11:47:48;2.40;;;0.40;;
9364;SDS011;4722;49.340;9.800;2023-07-29T11:50:14;1.63;;;0.50;;
9364;SDS011;4722;49.340;9.800;2023-07-29T11:52:41;1.13;;;0.40;;
9364;SDS011;4722;49.340;9.800;2023-07-29T11:55:08;1.95;;;0.80;;
9364;SDS011;4722;49.340;9.800;2023-07-29T11:57:38;2.40;;;0.70;;
9364;SDS011;4722;49.340;9.800;2023-07-29T12:00:06;2.15;;;0.47;;
9364;SDS011;4722;49.340;9.800;2023-07-29T12:02:36;0.52;;;0.30;;
9364;SDS011;4722;49.340;9.800;2023-07-29T12:05:04;0.70;;;0.40;;
9364;SDS011;4722;49.340;9.800;2023-07-29T12:07:31;0.98;;;0.40;;
9364;SDS011;4722;49.340;9.800;2023-07-29T12:09:58;1.35;;;0.50;;
9364;SDS011;4722;49.340;9.800;2023-07-29T12:12:24;4.13;;;0.45;;
9364;SDS011;4722;49.340;9.800;2023-07-29T12:14:50;1.08;;;0.35;;
9364;SDS011;4722;49.340;9.800;2023-07-29T12:17:16;1.25;;;0.50;;
9364;SDS011;4722;49.340;9.800;2023-07-29T12:19:42;2.80;;;0.40;;
9364;SDS011;4722;49.340;9.800;2023-07-29T12:22:08;1.58;;;0.75;;
9364;SDS011;4722;49.340;9.800;2023-07-29T12:24:40;1.33;;;0.40;;
9364;SDS011;4722;49.340;9.800;2023-07-29T12:27:10;4.10;;;0.50;;
9364;SDS011;4722;49.340;9.800;2023-07-29T12:29:44;0.95;;;0.40;;
9364;SDS011;4722;49.340;9.800;2023-07-29T12:32:11;0.70;;;0.38;;
9364;SDS011;4722;49.340;9.800;2023-07-29T12:34:38;2.42;;;0.43;;
9364;SDS011;4722;49.340;9.800;2023-07-29T12:37:04;0.95;;;0.50;;
9364;SDS011;4722;49.340;9.800;2023-07-29T12:39:32;1.25;;;0.40;;
9364;SDS011;4722;49.340;9.800;2023-07-29T12:41:59;0.95;;;0.40;;
9364;SDS011;4722;49.340;9.800;2023-07-29T12:44:33;0.75;;;0.30;;
9364;SDS011;4722;49.340;9.800;2023-07-29T12:47:01;0.70;;;0.38;;
9364;SDS011;4722;49.340;9.800;2023-07-29T12:49:29;4.47;;;0.50;;
9364;SDS011;4722;49.340;9.800;2023-07-29T12:51:58;0.77;;;0.40;;
9364;SDS011;4722;49.340;9.800;2023-07-29T12:54:25;1.33;;;0.38;;
9364;SDS011;4722;49.340;9.800;2023-07-29T12:59:52;1.45;;;0.60;;
9364;SDS011;4722;49.340;9.800;2023-07-29T13:02:17;0.68;;;0.30;;
9364;SDS011;4722;49.340;9.800;2023-07-29T13:04:43;1.38;;;0.50;;
9364;SDS011;4722;49.340;9.800;2023-07-29T13:07:09;1.98;;;0.30;;
9364;SDS011;4722;49.340;9.800;2023-07-29T13:09:35;0.85;;;0.40;;
9364;SDS011;4722;49.340;9.800;2023-07-29T13:12:00;0.93;;;0.32;;
9364;SDS011;4722;49.340;9.800;2023-07-29T13:14:27;0.82;;;0.30;;
9364;SDS011;4722;49.340;9.800;2023-07-29T13:16:52;2.50;;;0.52;;
9364;SDS011;4722;49.340;9.800;2023-07-29T13:19:18;1.77;;;0.40;;
9364;SDS011;4722;49.340;9.800;2023-07-29T13:21:44;2.83;;;0.40;;
9364;SDS011;4722;49.340;9.800;2023-07-29T13:24:09;0.40;;;0.30;;
9364;SDS011;4722;49.340;9.800;2023-07-29T13:26:35;2.00;;;0.45;;
9364;SDS011;4722;49.340;9.800;2023-07-29T13:29:01;1.60;;;0.43;;
9364;SDS011;4722;49.340;9.800;2023-07-29T13:31:29;1.00;;;0.40;;
9364;SDS011;4722;49.340;9.800;2023-07-29T13:33:55;0.75;;;0.30;;
9364;SDS011;4722;49.340;9.800;2023-07-29T13:36:21;1.38;;;0.47;;
9364;SDS011;4722;49.340;9.800;2023-07-29T13:38:46;2.40;;;0.85;;
9364;SDS011;4722;49.340;9.800;2023-07-29T13:41:12;1.08;;;0.47;;
9364;SDS011;4722;49.340;9.800;2023-07-29T13:43:37;1.00;;;0.30;;
9364;SDS011;4722;49.340;9.800;2023-07-29T13:46:03;3.05;;;0.52;;
9364;SDS011;4722;49.340;9.800;2023-07-29T13:48:29;1.63;;;0.60;;
9364;SDS011;4722;49.340;9.800;2023-07-29T13:50:58;0.73;;;0.30;;
9364;SDS011;4722;49.340;9.800;2023-07-29T13:53:23;0.82;;;0.40;;
9364;SDS011;4722;49.340;9.800;2023-07-29T13:55:49;1.50;;;0.43;;
9364;SDS011;4722;49.340;9.800;2023-07-29T13:58:15;0.77;;;0.45;;
9364;SDS011;4722;49.340;9.800;2023-07-29T14:00:40;0.70;;;0.25;;
9364;SDS011;4722;49.340;9.800;2023-07-29T14:03:06;5.30;;;0.50;;
9364;SDS011;4722;49.340;9.800;2023-07-29T14:05:33;0.93;;;0.40;;
9364;SDS011;4722;49.340;9.800;2023-07-29T14:07:59;2.72;;;0.60;;
9364;SDS011;4722;49.340;9.800;2023-07-29T14:10:26;0.90;;;0.40;;
9364;SDS011;4722;49.340;9.800;2023-07-29T14:12:51;1.95;;;0.55;;
9364;SDS011;4722;49.340;9.800;2023-07-29T14:15:17;1.25;;;0.50;;
9364;SDS011;4722;49.340;9.800;2023-07-29T14:17:43;0.55;;;0.30;;
9364;SDS011;4722;49.340;9.800;2023-07-29T14:20:10;1.95;;;0.60;;
9364;SDS011;4722;49.340;9.800;2023-07-29T14:22:37;5.25;;;0.70;;
9364;SDS011;4722;49.340;9.800;2023-07-29T14:25:02;1.85;;;0.50;;
9364;SDS011;4722;49.340;9.800;2023-07-29T14:27:28;1.35;;;0.50;;
9364;SDS011;4722;49.340;9.800;2023-07-29T14:29:54;0.63;;;0.20;;
9364;SDS011;4722;49.340;9.800;2023-07-29T14:32:20;0.65;;;0.25;;
9364;SDS011;4722;49.340;9.800;2023-07-29T14:34:45;1.10;;;0.52;;
9364;SDS011;4722;49.340;9.800;2023-07-29T14:37:11;1.02;;;0.65;;
9364;SDS011;4722;49.340;9.800;2023-07-29T14:39:37;1.02;;;0.50;;
9364;SDS011;4722;49.340;9.800;2023-07-29T14:42:03;0.85;;;0.30;;
9364;SDS011;4722;49.340;9.800;2023-07-29T14:44:28;2.50;;;0.50;;
9364;SDS011;4722;49.340;9.800;2023-07-29T14:46:54;0.80;;;0.50;;
9364;SDS011;4722;49.340;9.800;2023-07-29T14:49:20;0.95;;;0.63;;
9364;SDS011;4722;49.340;9.800;2023-07-29T14:51:45;0.30;;;0.20;;
9364;SDS011;4722;49.340;9.800;2023-07-29T14:54:11;0.85;;;0.40;;
9364;SDS011;4722;49.340;9.800;2023-07-29T14:56:37;1.75;;;0.45;;
9364;SDS011;4722;49.340;9.800;2023-07-29T14:59:03;0.98;;;0.40;;
9364;SDS011;4722;49.340;9.800;2023-07-29T15:01:28;0.80;;;0.40;;
9364;SDS011;4722;49.340;9.800;2023-07-29T15:03:54;1.42;;;0.52;;
9364;SDS011;4722;49.340;9.800;2023-07-29T15:06:20;1.33;;;0.60;;
9364;SDS011;4722;49.340;9.800;2023-07-29T15:08:46;0.77;;;0.35;;
9364;SDS011;4722;49.340;9.800;2023-07-29T15:11:11;0.95;;;0.28;;
9364;SDS011;4722;49.340;9.800;2023-07-29T15:13:37;1.45;;;0.52;;
9364;SDS011;4722;49.340;9.800;2023-07-29T15:16:02;4.90;;;0.50;;
9364;SDS011;4722;49.340;9.800;2023-07-29T15:18:28;1.85;;;0.70;;
9364;SDS011;4722;49.340;9.800;2023-07-29T15:20:55;3.35;;;0.77;;
9364;SDS011;4722;49.340;9.800;2023-07-29T15:23:22;1.65;;;0.65;;
9364;SDS011;4722;49.340;9.800;2023-07-29T15:25:48;1.33;;;0.60;;
9364;SDS011;4722;49.340;9.800;2023-07-29T15:28:14;1.35;;;0.65;;
9364;SDS011;4722;49.340;9.800;2023-07-29T15:30:40;1.73;;;0.50;;
9364;SDS011;4722;49.340;9.800;2023-07-29T15:33:05;4.03;;;0.47;;
9364;SDS011;4722;49.340;9.800;2023-07-29T15:35:34;0.98;;;0.32;;
9364;SDS011;4722;49.340;9.800;2023-07-29T15:38:05;1.67;;;0.70;;
9364;SDS011;4722;49.340;9.800;2023-07-29T15:40:31;1.60;;;0.65;;
9364;SDS011;4722;49.340;9.800;2023-07-29T15:42:57;2.60;;;0.77;;
9364;SDS011;4722;49.340;9.800;2023-07-29T15:45:22;1.38;;;0.50;;